Latest Weather Observations for Renmark Airport

IDS60801

Issued at 6:31 pm CST Wednesday 25 May 2016 (issued every 30 minutes, with the page automatically refreshed every 10 minutes)

About weather observations | Map of weather stations | Latest weather observations for SA | Other Formats
Station Details ID: 024048 Name: RENMARK AERO Lat: -34.20 Lon: 140.68 Height: 31.5 m
Data from the previous 72 hours. | See also: Recent months at Renmark Airport
Date/Time
CST
Temp
°C
App
Temp
°C
Dew
Point
Rel
Hum
%
Delta-T
°C
Wind Press
QNH
hPa
Press
MSL
hPa
Rain
since 9 am
mm
Dir
 
Spd
km/h
Gust
km/h
Spd
kts
Gust
kts
25/06:30pm 11.5 8.4 11.5 100 0.0 N 19 24 10 13 1008.9 1008.9 4.6
25/06:00pm 11.5 8.7 11.5 100 0.0 N 17 26 9 14 1009.1 1009.1 4.2
25/05:30pm 11.7 8.4 11.7 100 0.0 N 20 30 11 16 1009.1 1009.1 4.0
25/05:00pm 11.5 8.2 11.5 100 0.0 N 20 28 11 15 1009.2 1009.2 3.6
25/04:30pm 11.7 8.1 11.7 100 0.0 N 22 30 12 16 1009.4 1009.4 3.4
25/04:00pm 11.9 7.2 11.9 100 0.0 N 28 37 15 20 1009.4 1009.4 3.4
25/03:30pm 12.1 8.1 11.9 99 0.1 N 24 32 13 17 1009.0 1009.0 3.4
25/03:00pm 12.2 8.9 11.6 96 0.3 N 20 32 11 17 1009.4 1009.4 3.4
25/02:30pm 12.1 8.6 10.8 92 0.7 N 20 30 11 16 1009.8 1009.8 3.2
25/02:00pm 11.9 6.9 10.8 93 0.6 N 28 35 15 19 1010.1 1010.1 3.2
25/01:30pm 11.4 7.1 10.6 95 0.4 N 24 32 13 17 1010.5 1010.5 3.2
25/01:00pm 11.4 7.5 10.8 96 0.3 N 22 33 12 18 1011.6 1011.6 3.2
25/12:30pm 11.2 7.8 11.2 100 0.0 N 20 30 11 16 1012.2 1012.2 3.2
25/12:00pm 10.8 7.5 10.8 100 0.0 N 19 22 10 12 1013.1 1013.1 2.8
25/11:30am 10.6 7.0 10.6 100 0.0 N 20 28 11 15 1013.9 1013.9 2.4
25/11:00am 10.6 6.6 10.6 100 0.0 N 22 30 12 16 1014.6 1014.6 1.6
25/10:30am 10.5 6.9 10.5 100 0.0 N 20 24 11 13 1014.8 1014.8 1.0
25/10:00am 10.4 6.7 10.1 98 0.2 N 20 28 11 15 1015.2 1015.2 0.6
25/09:30am 10.3 6.5 9.7 96 0.3 N 20 26 11 14 1015.5 1015.4 0.4
25/09:00am 10.0 6.2 9.2 95 0.4 N 19 26 10 14 1015.7 1015.7 2.8
25/08:30am 9.9 6.3 8.3 90 0.8 N 17 22 9 12 1015.9 1015.9 2.4
25/08:00am 10.2 6.5 7.8 85 1.2 N 17 22 9 12 1016.2 1016.2 2.2
25/07:30am 9.8 6.2 8.2 90 0.8 NNW 17 22 9 12 1016.4 1016.4 1.8
25/07:00am 10.6 6.2 6.4 75 2.0 NW 19 22 10 12 1016.1 1016.1 0.6
25/06:30am 10.8 6.2 5.8 71 2.3 NNW 19 24 10 13 1015.6 1015.5 0.4
25/06:00am 11.1 6.8 5.4 68 2.6 N 17 20 9 11 1015.0 1015.0 0.2
25/05:30am 10.8 6.0 4.9 67 2.7 NNW 19 26 10 14 1014.9 1014.9 0.2
25/05:00am 13.5 8.1 1.2 43 5.3 NNW 19 24 10 13 1015.0 1015.0 0.0
25/04:30am 12.0 7.6 0.5 45 4.8 NW 13 19 7 10 1015.0 1015.0 0.0
25/04:00am 12.0 6.9 0.8 46 4.7 N 17 22 9 12 1014.1 1014.1 0.0
25/03:30am 11.6 6.5 1.0 48 4.4 NE 17 22 9 12 1014.1 1014.1 0.0
25/03:00am 11.1 6.1 1.1 50 4.2 NE 17 20 9 11 1014.6 1014.6 0.0
25/02:30am 10.5 5.5 1.1 52 3.9 NNE 17 22 9 12 1015.2 1015.2 0.0
25/02:00am 11.1 5.5 1.1 50 4.2 NNE 20 24 11 13 1015.6 1015.5 0.0
25/01:30am 11.4 5.7 0.8 48 4.4 NNE 20 28 11 15 1015.7 1015.7 0.0
25/01:00am 10.8 5.3 0.8 50 4.1 NNE 19 24 10 13 1016.0 1016.0 0.0
25/12:30am 10.3 5.2 0.6 51 4.0 NNE 17 20 9 11 1016.7 1016.7 0.0
25/12:00am 9.8 5.4 0.4 52 3.8 NNE 13 17 7 9 1017.4 1017.4 0.0
 
Date/Time
CST
Temp
°C
App
Temp
°C
Dew
Point
Rel
Hum
%
Delta-T
°C
Wind Press
QNH
hPa
Press
MSL
hPa
Rain
since 9 am
mm
Dir
 
Spd
km/h
Gust
km/h
Spd
kts
Gust
kts
24/11:30pm 10.6 6.2 0.3 49 4.2 N 13 17 7 9 1017.9 1017.9 0.0
24/11:00pm 11.4 7.0 0.2 46 4.6 N 13 17 7 9 1017.8 1017.8 0.0
24/10:30pm 11.5 7.1 0.3 46 4.6 N 13 15 7 8 1018.2 1018.2 0.0
24/10:00pm 12.4 7.7 0.8 45 4.9 N 15 20 8 11 1018.3 1018.3 0.0
24/09:30pm 11.7 7.5 1.4 49 4.3 NNE 13 17 7 9 1018.4 1018.4 0.0
24/09:00pm 11.9 7.7 1.8 50 4.3 NNE 13 17 7 9 1018.7 1018.7 0.0
24/08:30pm 11.8 7.7 2.3 52 4.1 NNE 13 15 7 8 1018.9 1018.9 0.0
24/08:00pm 11.7 7.6 2.5 53 4.0 NNE 13 15 7 8 1019.0 1019.0 0.0
24/07:30pm 11.9 7.8 2.4 52 4.1 NNE 13 15 7 8 1019.0 1019.0 0.0
24/07:00pm 12.5 8.8 2.1 49 4.5 NNE 11 13 6 7 1019.0 1019.0 0.0
24/06:30pm 13.8 10.3 1.5 43 5.3 N 9 13 5 7 1019.0 1019.0 0.0
24/06:00pm 16.1 12.4 2.2 39 6.2 N 11 13 6 7 1018.9 1018.9 0.0
24/05:30pm 16.8 13.0 2.0 37 6.6 NNW 11 13 6 7 1018.9 1018.9 0.0
24/05:00pm 18.4 14.5 1.4 32 7.6 N 11 17 6 9 1018.7 1018.7 0.0
24/04:30pm 20.1 15.6 2.0 30 8.3 N 15 20 8 11 1018.7 1018.7 0.0
24/04:00pm 20.7 15.8 2.0 29 8.7 NNW 17 20 9 11 1018.8 1018.8 0.0
24/03:30pm 21.0 16.1 1.8 28 8.8 NNW 17 22 9 12 1019.0 1019.0 0.0
24/03:00pm 21.1 16.6 1.9 28 8.9 N 15 26 8 14 1019.1 1019.1 0.0
24/02:30pm 21.0 16.2 2.8 30 8.5 NW 17 24 9 13 1019.5 1019.5 0.0
24/02:00pm 20.2 15.5 3.0 32 8.1 N 17 26 9 14 1019.7 1019.7 0.0
24/01:30pm 20.1 15.7 4.6 36 7.5 NNW 17 22 9 12 1020.2 1020.2 0.0
24/01:00pm 19.3 15.1 5.7 41 6.7 N 17 22 9 12 1020.7 1020.7 0.0
24/12:30pm 19.4 15.2 5.8 41 6.7 N 17 26 9 14 1021.5 1021.5 0.0
24/12:00pm 19.1 15.0 6.2 43 6.4 N 17 24 9 13 1022.4 1022.4 0.0
24/11:30am 17.9 14.3 6.7 48 5.5 NNE 15 20 8 11 1023.2 1023.2 0.0
24/11:00am 17.3 14.2 7.4 52 5.0 N 13 19 7 10 1023.9 1023.9 0.0
24/10:30am 16.6 14.3 7.3 54 4.6 NNW 9 15 5 8 1024.4 1024.4 0.0
24/10:00am 15.9 12.8 7.4 57 4.2 NNW 13 17 7 9 1024.6 1024.6 0.0
24/09:30am 14.6 12.7 7.4 62 3.5 NW 7 9 4 5 1024.7 1024.7 0.0
24/09:00am 12.3 10.4 6.6 68 2.7 NNW 6 7 3 4 1024.8 1024.8 0.0
24/08:30am 9.4 7.3 5.6 77 1.7 WNW 6 9 3 5 1024.7 1024.7 0.0
24/08:00am 7.4 5.2 5.2 86 1.0 NNE 6 7 3 4 1024.2 1024.2 0.0
24/07:30am 5.0 3.6 3.5 90 0.6 CALM 0 0 0 0 1024.0 1024.0 0.0
24/07:00am 4.9 3.4 3.1 88 0.7 CALM 0 0 0 0 1023.7 1023.7 0.0
24/06:30am 5.5 4.1 3.8 89 0.7 CALM 0 0 0 0 1023.5 1023.5 0.0
24/06:00am 5.3 2.9 4.4 94 0.4 WNW 6 7 3 4 1022.8 1022.8 0.0
24/05:30am 4.4 1.6 2.9 90 0.6 WNW 7 9 4 5 1022.7 1022.7 0.0
24/05:00am 4.0 1.2 2.2 88 0.7 WNW 6 9 3 5 1022.6 1022.6 0.0
24/04:30am 3.4 1.6 1.0 84 0.9 CALM 0 0 0 0 1022.5 1022.5 0.0
24/04:00am 3.6 1.8 1.0 83 1.0 CALM 0 0 0 0 1022.6 1022.6 0.0
24/03:30am 3.7 1.9 1.1 83 1.0 CALM 0 0 0 0 1022.8 1022.8 0.0
24/03:00am 4.1 2.4 1.6 84 1.0 CALM 0 0 0 0 1023.2 1023.2 0.0
24/02:30am 4.0 2.1 0.5 78 1.3 CALM 0 0 0 0 1023.3 1023.3 0.0
24/02:00am 5.4 3.8 2.4 81 1.2 CALM 0 0 0 0 1023.2 1023.2 0.0
24/01:30am 6.6 5.3 4.1 84 1.1 CALM 0 0 0 0 1023.3 1023.3 0.0
24/01:00am 5.9 3.2 2.5 79 1.4 SW 6 7 3 4 1023.3 1023.3 0.0
24/12:30am 6.4 3.8 3.2 80 1.3 WSW 6 7 3 4 1023.4 1023.4 0.0
24/12:00am 6.8 4.0 3.4 79 1.4 W 7 9 4 5 1023.7 1023.7 0.0
 
Date/Time
CST
Temp
°C
App
Temp
°C
Dew
Point
Rel
Hum
%
Delta-T
°C
Wind Press
QNH
hPa
Press
MSL
hPa
Rain
since 9 am
mm
Dir
 
Spd
km/h
Gust
km/h
Spd
kts
Gust
kts
23/11:30pm 8.5 5.9 4.3 75 1.8 W 7 9 4 5 1023.8 1023.8 0.0
23/11:00pm 9.8 7.4 5.4 74 2.0 WSW 7 9 4 5 1024.1 1024.1 0.0
23/10:30pm 10.5 7.7 5.1 69 2.4 WSW 9 13 5 7 1024.4 1024.4 0.0
23/10:00pm 10.5 7.3 4.9 68 2.5 WSW 11 13 6 7 1024.4 1024.4 0.0
23/09:30pm 10.1 6.8 4.3 67 2.6 WSW 11 13 6 7 1024.3 1024.3 0.0
23/09:00pm 8.9 5.3 3.1 67 2.5 W 11 13 6 7 1024.1 1024.1 0.0
23/08:30pm 8.3 4.9 1.7 63 2.7 W 9 11 5 6 1023.8 1023.8 0.0
23/08:00pm 8.6 5.2 1.7 62 2.8 W 9 9 5 5 1023.5 1023.5 0.0
23/07:30pm 9.7 6.4 2.3 60 3.1 W 9 9 5 5 1023.3 1023.3 0.0
23/07:00pm 11.2 8.4 2.2 54 3.9 WNW 6 7 3 4 1023.1 1023.1 0.0
23/06:30pm 11.6 8.8 2.1 52 4.1 W 6 7 3 4 1022.9 1022.9 0.0
23/06:00pm 13.1 10.4 2.6 49 4.6 W 6 7 3 4 1022.7 1022.7 0.0
23/05:30pm 16.8 13.7 3.5 41 6.1 SW 9 11 5 6 1022.4 1022.4 0.0
23/05:00pm 18.4 14.1 3.5 37 7.0 SW 15 24 8 13 1022.2 1022.2 0.0
23/04:30pm 19.3 15.1 3.9 36 7.3 WSW 15 22 8 12 1022.3 1022.3 0.0
23/04:00pm 19.7 14.2 4.2 36 7.4 WSW 22 30 12 16 1022.3 1022.3 0.0
23/03:30pm 20.0 15.0 4.5 36 7.5 WSW 20 33 11 18 1022.2 1022.2 0.0
23/03:00pm 19.9 14.2 4.8 37 7.3 W 24 33 13 18 1021.9 1021.9 0.0
23/02:30pm 19.6 14.7 4.9 38 7.1 WSW 20 33 11 18 1022.0 1022.0 0.0
23/02:00pm 19.8 14.1 5.1 38 7.2 W 24 32 13 17 1022.0 1022.0 0.0
23/01:30pm 19.8 14.7 4.3 36 7.4 W 20 30 11 16 1022.3 1022.3 0.0
23/01:00pm 19.4 13.9 4.0 36 7.3 WSW 22 32 12 17 1022.4 1022.4 0.0
23/12:30pm 19.3 13.9 4.3 37 7.2 WSW 22 32 12 17 1022.6 1022.6 0.0
23/12:00pm 19.0 14.2 4.4 38 7.0 WSW 19 24 10 13 1022.9 1022.9 0.0
23/11:30am 18.2 13.4 4.4 40 6.5 WSW 19 32 10 17 1023.4 1023.4 0.0
23/11:00am 17.1 13.0 6.3 49 5.3 WSW 17 28 9 15 1023.9 1023.9 0.0
23/10:30am 16.2 11.6 6.3 52 4.8 WSW 20 28 11 15 1024.2 1024.2 0.0
23/10:00am 15.7 11.8 7.2 57 4.2 W 17 26 9 14 1024.3 1024.3 0.0
23/09:30am 15.1 11.3 7.6 61 3.7 W 17 28 9 15 1024.1 1024.1 0.0
23/09:00am 13.9 10.3 8.3 69 2.8 W 17 20 9 11 1023.8 1023.8 0.0
23/08:30am 12.2 9.8 8.5 78 1.8 W 11 17 6 9 1023.7 1023.7 0.0
23/08:00am 10.7 8.7 8.8 88 0.9 WNW 9 13 5 7 1023.4 1023.4 0.0
23/07:30am 8.9 6.7 7.7 92 0.6 NW 9 11 5 6 1023.1 1023.1 0.0
23/07:00am 9.6 7.9 8.5 93 0.5 NW 7 9 4 5 1022.7 1022.7 0.0
23/06:30am 10.1 7.6 8.2 88 0.9 W 11 15 6 8 1022.2 1022.2 0.0
23/06:00am 10.9 7.7 8.3 84 1.3 W 15 20 8 11 1021.6 1021.6 0.0
23/05:30am 11.2 7.5 8.1 81 1.5 W 17 24 9 13 1021.1 1021.1 0.0
23/05:00am 11.7 7.6 7.8 77 1.9 WSW 19 24 10 13 1020.7 1020.7 0.0
23/04:30am 12.1 7.7 7.6 74 2.2 WSW 20 28 11 15 1020.2 1020.2 0.0
23/04:00am 12.4 7.3 7.5 72 2.4 W 24 32 13 17 1019.7 1019.7 0.0
23/03:30am 13.0 7.1 7.5 69 2.7 WSW 28 35 15 19 1019.2 1019.2 0.0
23/03:00am 13.1 7.2 7.3 68 2.8 WSW 28 39 15 21 1019.1 1019.1 0.0
23/02:30am 12.6 7.9 7.7 72 2.4 W 22 30 12 16 1018.8 1018.8 0.0
23/02:00am 13.1 8.4 7.8 70 2.6 W 22 32 12 17 1018.5 1018.5 0.0
23/01:30am 13.5 8.3 7.3 66 3.0 WNW 24 35 13 19 1018.3 1018.3 0.0
23/01:00am 13.9 9.1 7.2 64 3.3 W 22 32 12 17 1018.3 1018.3 0.0
23/12:30am 14.0 9.7 7.8 66 3.1 W 20 33 11 18 1018.1 1018.1 0.0
23/12:00am 14.4 9.0 8.1 66 3.1 W 26 39 14 21 1017.5 1017.5 0.0
 
Date/Time
CST
Temp
°C
App
Temp
°C
Dew
Point
Rel
Hum
%
Delta-T
°C
Wind Press
QNH
hPa
Press
MSL
hPa
Rain
since 9 am
mm
Dir
 
Spd
km/h
Gust
km/h
Spd
kts
Gust
kts
22/11:30pm 15.0 9.3 8.3 64 3.4 W 28 44 15 24 1017.1 1017.1 0.0
22/11:00pm 15.4 10.1 8.6 64 3.5 W 26 35 14 19 1016.7 1016.7 0.0
22/10:30pm 15.7 10.5 8.7 63 3.6 W 26 37 14 20 1016.4 1016.4 0.0
22/10:00pm 16.4 10.1 8.9 61 3.9 WSW 32 43 17 23 1016.1 1016.1 0.0
22/09:30pm 16.3 10.6 9.7 65 3.4 WSW 30 44 16 24 1016.1 1016.1 0.0
22/09:00pm 16.9 9.9 9.8 63 3.7 WSW 37 56 20 30 1015.6 1015.5 0.0
22/08:35pm 18.5 12.4 10.3 59 4.4 W 33 63 18 34 1014.9 1014.9 0.0
22/08:34pm 18.8 13.3 10.6 59 4.4 W 30 56 16 30 1014.8 1014.8 0.0
22/08:31pm 20.0 15.8 11.0 56 4.9 WNW 24 54 13 29 1014.5 1014.5 0.0
22/08:30pm 20.2 16.5 11.4 57 4.9 WNW 22 37 12 20 1014.3 1014.3 0.0
22/08:00pm 19.7 17.2 12.2 62 4.2 NW 17 22 9 12 1013.4 1013.4 0.0
22/07:30pm 19.8 16.9 12.3 62 4.2 NW 19 24 10 13 1013.1 1013.1 0.0
22/07:00pm 19.7 16.9 12.7 64 3.9 NW 19 24 10 13 1012.7 1012.7 0.0

Other Formats:

Comma delimited format used in spreadsheet applications
http://www.bom.gov.au/fwo/IDS60801/IDS60801.95687.axf

JavaScript Object Notation format (JSON) in row-major order
http://www.bom.gov.au/fwo/IDS60801/IDS60801.95687.json